Hanjin Madrid — DHQS — position and weather

sailwx.info

Track history (hours):
 
Tides and Currents Weather Stations Pressure Air Temp Water Temp Dewpoint Dewpoint Depression Visibility Wind Speed Wind Dir Waves Ship Positions

Hanjin Madrid

Last reported at 2014-Dec-18 19:33 UTC. Time now 2014-Dec-20 23:01 UTC.
Position N 39°22' W 073°54'.

Length 278.9 m; beam 40.3 m; draft 14 m.

Type: Ship. MMSI: 211424430.

Date/timePositionNaut miles runAvg speedWind from/ knotsBaromVisibWave heightAir tempDewpointWater temp
2014-Dec-18 19:33N 39°22' W 073°54'1313.2
2014-Dec-18 18:33N 39°35' W 073°53'1313.3
2014-Dec-18 17:33N 39°48' W 073°52'1413.5
2014-Dec-18 16:33N 40°02' W 073°50'1613.8
2014-Dec-18 15:22N 40°18' W 073°48'1012.8
2014-Dec-18 14:33N 40°28' W 073°52'1212.2
2014-Dec-18 13:33N 40°37' W 074°03'5 5.3
2014-Dec-18 12:33N 40°40' W 074°09'1 1.2
2014-Dec-18 11:33N 40°41' W 074°09'0 0.0
2014-Dec-18 10:33N 40°41' W 074°09'0 0.0
2014-Dec-18 09:30N 40°41' W 074°09'0 0.0
2014-Dec-18 08:30N 40°41' W 074°09'0 0.0
2014-Dec-18 07:33N 40°41' W 074°09'0 0.0
2014-Dec-18 06:33N 40°41' W 074°09'0 0.0
2014-Dec-18 05:33N 40°41' W 074°09'0 0.0
2014-Dec-18 04:33N 40°41' W 074°09'0 0.0
2014-Dec-18 03:33N 40°41' W 074°09'0 0.0
2014-Dec-18 02:33N 40°41' W 074°09'0 0.0
2014-Dec-18 01:27N 40°41' W 074°09'0 0.0
2014-Dec-18 00:33N 40°41' W 074°09'0 0.0
2014-Dec-17 23:33N 40°41' W 074°09'0 0.0
2014-Dec-17 22:33N 40°41' W 074°09'0 0.0
2014-Dec-17 21:33N 40°41' W 074°09'0 0.0
2014-Dec-17 20:33N 40°41' W 074°09'0 0.0
2014-Dec-17 19:33N 40°41' W 074°09'0 0.0
2014-Dec-17 18:33N 40°41' W 074°09'0 0.0
2014-Dec-17 17:33N 40°41' W 074°09'0 0.0
2014-Dec-17 16:33N 40°41' W 074°09'0 0.0
2014-Dec-17 15:33N 40°41' W 074°09'0 0.0
2014-Dec-17 14:33N 40°41' W 074°09'0 0.0
2014-Dec-17 13:33N 40°41' W 074°09'0 0.0
2014-Dec-17 12:33N 40°41' W 074°09'0 0.0
2014-Dec-17 11:33N 40°41' W 074°09'0 0.0
2014-Dec-17 10:33N 40°41' W 074°09'0 0.0
2014-Dec-17 09:33N 40°41' W 074°09'0 0.0
2014-Dec-17 08:33N 40°41' W 074°09'0 0.0
2014-Dec-17 07:33N 40°41' W 074°09'0 0.0
2014-Dec-17 06:33N 40°41' W 074°09'0 0.0
2014-Dec-17 05:33N 40°41' W 074°09'0 0.0
2014-Dec-17 04:33N 40°41' W 074°09'0 0.0
2014-Dec-17 03:33N 40°41' W 074°09'0 0.0
2014-Dec-17 02:33N 40°41' W 074°09'0 0.0
2014-Dec-17 01:33N 40°41' W 074°09'0 0.0
2014-Dec-17 00:33N 40°41' W 074°09'0 0.0
2014-Dec-16 23:33N 40°41' W 074°09'0 0.0
2014-Dec-16 22:33N 40°41' W 074°09'0 0.0
2014-Dec-16 21:33N 40°41' W 074°09'0 0.0
2014-Dec-16 20:33N 40°41' W 074°09'0 0.0
2014-Dec-16 19:33N 40°41' W 074°09'0 0.0
2014-Dec-16 18:33N 40°41' W 074°09'0 0.0
2014-Dec-16 17:33N 40°41' W 074°09'0 0.0
2014-Dec-16 16:33N 40°41' W 074°09'1 1.3
2014-Dec-16 15:34N 40°39' W 074°09'5 4.5
2014-Dec-16 14:33N 40°38' W 074°03'1211.8
2014-Dec-16 13:33N 40°29' W 073°53'8 7.9
2014-Dec-16 12:33N 40°25' W 073°44'9 8.8
2014-Dec-16 11:33N 40°19' W 073°35'1413.9
2014-Dec-16 10:33N 40°11' W 073°21'1515.1
2014-Dec-16 09:33N 40°04' W 073°03'1514.8
2014-Dec-16 08:33N 39°60' W 072°45'1414.4
2014-Dec-16 07:33N 39°56' W 072°26'1414.4
2014-Dec-16 06:34N 39°52' W 072°09'1414.1
2014-Dec-16 05:33N 39°50' W 071°50'1514.6
2014-Dec-16 04:33N 39°52' W 071°31'1515.2
2014-Dec-16 03:32N 39°52' W 071°11'1414.5
2014-Dec-16 02:33N 39°52' W 070°53'1414.4
2014-Dec-16 01:33N 39°53' W 070°34'1917.0
2014-Dec-16 00:26N 39°54' W 070°09'3 1.2
2014-Dec-15 21:33N 39°54' W 070°05'10 9.6
2014-Dec-15 20:30N 39°53' W 069°52'1514.6
2014-Dec-15 19:29N 39°54' W 069°33'46812.5
2014-Dec-14 06:00N 39°42' W 059°24'18030.0 200 / 311002.0 5.4 19.017.520.0
2014-Dec-14 00:00N 39°36' W 055°30'61217.0 140 / 331008.0 5.4 2.018.018.017.0
2014-Dec-12 12:00N 38°42' W 042°24'48320.1 140 / 171030.0 5.4 4.019.517.218.0
2014-Dec-11 12:00N 38°30' W 032°06'3017.7 140 / 121033.0 5.4 2.018.018.021.0
2014-Dec-11 10:19N 38°29' W 031°28'1919.8
2014-Dec-11 09:22N 38°29' W 031°04'1619.9
2014-Dec-11 08:33N 38°28' W 030°43'2020.0
2014-Dec-11 07:33N 38°28' W 030°18'2020.0
2014-Dec-11 06:33N 38°27' W 029°52'1323.2
2014-Dec-11 06:00N 38°24' W 029°36'717.0 140 / 161033.0 5.4 2.017.515.922.0
2014-Dec-11 05:34N 38°26' W 029°27'1919.2
2014-Dec-11 04:33N 38°25' W 029°03'1919.2
2014-Dec-11 03:33N 38°16' W 028°41'1919.4
2014-Dec-11 02:33N 38°07' W 028°19'2019.9
2014-Dec-11 01:33N 37°57' W 027°57'2020.0
2014-Dec-11 00:34N 37°48' W 027°34'1425.2
2014-Dec-11 00:00N 37°42' W 027°18'613.8 090 / 201035.0 5.4 2.016.016.021.0
2014-Dec-10 23:33N 37°39' W 027°11'2020.4
2014-Dec-10 22:33N 37°30' W 026°48'2020.2
2014-Dec-10 21:34N 37°28' W 026°23'2020.4
2014-Dec-10 20:33N 37°26' W 025°57'2020.1
2014-Dec-10 19:33N 37°24' W 025°32'2020.4
2014-Dec-10 18:33N 37°22' W 025°07'2019.9
2014-Dec-10 17:34N 37°20' W 024°42'2020.2
2014-Dec-10 16:34N 37°19' W 024°16'2020.3
2014-Dec-10 15:33N 37°17' W 023°51'1322.6
2014-Dec-10 15:00N 37°12' W 023°36'6220.8 070 / 191035.010.8 2.018.016.420.0
2014-Dec-10 12:00N 37°06' W 022°18'24120.1 070 / 201036.0 5.4 2.016.016.022.0
2014-Dec-10 00:00N 36°42' W 017°18'29024.1 050 / 221035.0 5.4 2.516.0
2014-Dec-09 12:00N 36°24' W 011°18'6 2.2 050 / 251033.0 5.4 3.017.0 21.0
2014-Dec-09 09:10N 36°20' W 011°12'18520.2
2014-Dec-09 00:00N 36°00' W 007°24'   010 / 221030.010.8 2.016.016.022.0
Track history (hours):
 
Tides and Currents Weather Stations Pressure Air Temp Water Temp Dewpoint Dewpoint Depression Visibility Wind Speed Wind Dir Waves Ship Positions

Hanjin Madrid

Last reported at 2014-Dec-18 19:33 UTC. Time now 2014-Dec-20 23:01 UTC.
Position N 39°22' W 073°54'.

Length 278.9 m; beam 40.3 m; draft 14 m.

Type: Ship. MMSI: 211424430.

Date/timePositionNaut miles runAvg speedWind from/ knotsBaromVisibWave heightAir tempDewpointWater temp
2014-Dec-18 19:33N 39°22' W 073°54'1313.2
2014-Dec-18 18:33N 39°35' W 073°53'1313.3
2014-Dec-18 17:33N 39°48' W 073°52'1413.5
2014-Dec-18 16:33N 40°02' W 073°50'1613.8
2014-Dec-18 15:22N 40°18' W 073°48'1012.8
2014-Dec-18 14:33N 40°28' W 073°52'1212.2
2014-Dec-18 13:33N 40°37' W 074°03'5 5.3
2014-Dec-18 12:33N 40°40' W 074°09'1 1.2
2014-Dec-18 11:33N 40°41' W 074°09'0 0.0
2014-Dec-18 10:33N 40°41' W 074°09'0 0.0
2014-Dec-18 09:30N 40°41' W 074°09'0 0.0
2014-Dec-18 08:30N 40°41' W 074°09'0 0.0
2014-Dec-18 07:33N 40°41' W 074°09'0 0.0
2014-Dec-18 06:33N 40°41' W 074°09'0 0.0
2014-Dec-18 05:33N 40°41' W 074°09'0 0.0
2014-Dec-18 04:33N 40°41' W 074°09'0 0.0
2014-Dec-18 03:33N 40°41' W 074°09'0 0.0
2014-Dec-18 02:33N 40°41' W 074°09'0 0.0
2014-Dec-18 01:27N 40°41' W 074°09'0 0.0
2014-Dec-18 00:33N 40°41' W 074°09'0 0.0
2014-Dec-17 23:33N 40°41' W 074°09'0 0.0
2014-Dec-17 22:33N 40°41' W 074°09'0 0.0
2014-Dec-17 21:33N 40°41' W 074°09'0 0.0
2014-Dec-17 20:33N 40°41' W 074°09'0 0.0
2014-Dec-17 19:33N 40°41' W 074°09'0 0.0
2014-Dec-17 18:33N 40°41' W 074°09'0 0.0
2014-Dec-17 17:33N 40°41' W 074°09'0 0.0
2014-Dec-17 16:33N 40°41' W 074°09'0 0.0
2014-Dec-17 15:33N 40°41' W 074°09'0 0.0
2014-Dec-17 14:33N 40°41' W 074°09'0 0.0
2014-Dec-17 13:33N 40°41' W 074°09'0 0.0
2014-Dec-17 12:33N 40°41' W 074°09'0 0.0
2014-Dec-17 11:33N 40°41' W 074°09'0 0.0
2014-Dec-17 10:33N 40°41' W 074°09'0 0.0
2014-Dec-17 09:33N 40°41' W 074°09'0 0.0
2014-Dec-17 08:33N 40°41' W 074°09'0 0.0
2014-Dec-17 07:33N 40°41' W 074°09'0 0.0
2014-Dec-17 06:33N 40°41' W 074°09'0 0.0
2014-Dec-17 05:33N 40°41' W 074°09'0 0.0
2014-Dec-17 04:33N 40°41' W 074°09'0 0.0
2014-Dec-17 03:33N 40°41' W 074°09'0 0.0
2014-Dec-17 02:33N 40°41' W 074°09'0 0.0
2014-Dec-17 01:33N 40°41' W 074°09'0 0.0
2014-Dec-17 00:33N 40°41' W 074°09'0 0.0
2014-Dec-16 23:33N 40°41' W 074°09'0 0.0
2014-Dec-16 22:33N 40°41' W 074°09'0 0.0
2014-Dec-16 21:33N 40°41' W 074°09'0 0.0
2014-Dec-16 20:33N 40°41' W 074°09'0 0.0
2014-Dec-16 19:33N 40°41' W 074°09'0 0.0
2014-Dec-16 18:33N 40°41' W 074°09'0 0.0
2014-Dec-16 17:33N 40°41' W 074°09'0 0.0
2014-Dec-16 16:33N 40°41' W 074°09'1 1.3
2014-Dec-16 15:34N 40°39' W 074°09'5 4.5
2014-Dec-16 14:33N 40°38' W 074°03'1211.8
2014-Dec-16 13:33N 40°29' W 073°53'8 7.9
2014-Dec-16 12:33N 40°25' W 073°44'9 8.8
2014-Dec-16 11:33N 40°19' W 073°35'1413.9
2014-Dec-16 10:33N 40°11' W 073°21'1515.1
2014-Dec-16 09:33N 40°04' W 073°03'1514.8
2014-Dec-16 08:33N 39°60' W 072°45'1414.4
2014-Dec-16 07:33N 39°56' W 072°26'1414.4
2014-Dec-16 06:34N 39°52' W 072°09'1414.1
2014-Dec-16 05:33N 39°50' W 071°50'1514.6
2014-Dec-16 04:33N 39°52' W 071°31'1515.2
2014-Dec-16 03:32N 39°52' W 071°11'1414.5
2014-Dec-16 02:33N 39°52' W 070°53'1414.4
2014-Dec-16 01:33N 39°53' W 070°34'1917.0
2014-Dec-16 00:26N 39°54' W 070°09'3 1.2
2014-Dec-15 21:33N 39°54' W 070°05'10 9.6
2014-Dec-15 20:30N 39°53' W 069°52'1514.6
2014-Dec-15 19:29N 39°54' W 069°33'46812.5
2014-Dec-14 06:00N 39°42' W 059°24'18030.0 200 / 311002.0 5.4 19.017.520.0
2014-Dec-14 00:00N 39°36' W 055°30'61217.0 140 / 331008.0 5.4 2.018.018.017.0
2014-Dec-12 12:00N 38°42' W 042°24'48320.1 140 / 171030.0 5.4 4.019.517.218.0
2014-Dec-11 12:00N 38°30' W 032°06'3017.7 140 / 121033.0 5.4 2.018.018.021.0
2014-Dec-11 10:19N 38°29' W 031°28'1919.8
2014-Dec-11 09:22N 38°29' W 031°04'1619.9
2014-Dec-11 08:33N 38°28' W 030°43'2020.0
2014-Dec-11 07:33N 38°28' W 030°18'2020.0
2014-Dec-11 06:33N 38°27' W 029°52'1323.2
2014-Dec-11 06:00N 38°24' W 029°36'717.0 140 / 161033.0 5.4 2.017.515.922.0
2014-Dec-11 05:34N 38°26' W 029°27'1919.2
2014-Dec-11 04:33N 38°25' W 029°03'1919.2
2014-Dec-11 03:33N 38°16' W 028°41'1919.4
2014-Dec-11 02:33N 38°07' W 028°19'2019.9
2014-Dec-11 01:33N 37°57' W 027°57'2020.0
2014-Dec-11 00:34N 37°48' W 027°34'1425.2
2014-Dec-11 00:00N 37°42' W 027°18'613.8 090 / 201035.0 5.4 2.016.016.021.0
2014-Dec-10 23:33N 37°39' W 027°11'2020.4
2014-Dec-10 22:33N 37°30' W 026°48'2020.2
2014-Dec-10 21:34N 37°28' W 026°23'2020.4
2014-Dec-10 20:33N 37°26' W 025°57'2020.1
2014-Dec-10 19:33N 37°24' W 025°32'2020.4
2014-Dec-10 18:33N 37°22' W 025°07'2019.9
2014-Dec-10 17:34N 37°20' W 024°42'2020.2
2014-Dec-10 16:34N 37°19' W 024°16'2020.3
2014-Dec-10 15:33N 37°17' W 023°51'1322.6
2014-Dec-10 15:00N 37°12' W 023°36'6220.8 070 / 191035.010.8 2.018.016.420.0
2014-Dec-10 12:00N 37°06' W 022°18'24120.1 070 / 201036.0 5.4 2.016.016.022.0
2014-Dec-10 00:00N 36°42' W 017°18'29024.1 050 / 221035.0 5.4 2.516.0
2014-Dec-09 12:00N 36°24' W 011°18'6 2.2 050 / 251033.0 5.4 3.017.0 21.0
2014-Dec-09 09:10N 36°20' W 011°12'18520.2
2014-Dec-09 00:00N 36°00' W 007°24'   010 / 221030.010.8 2.016.016.022.0

Dump ship's entire track history